createdAt,value
2022-10-13T00:03:36.681Z,14.80
2022-10-13T00:08:38.892Z,14.87
2022-10-13T00:13:41.707Z,14.74
2022-10-13T00:18:42.330Z,14.60
2022-10-13T00:23:45.328Z,14.68
2022-10-13T00:28:51.290Z,14.49
2022-10-13T00:33:56.283Z,14.52
2022-10-13T00:38:58.434Z,14.41
2022-10-13T00:44:01.949Z,14.45
2022-10-13T00:49:13.903Z,14.19
2022-10-13T00:54:30.352Z,14.40
2022-10-13T00:59:30.116Z,14.53
2022-10-13T01:04:32.467Z,14.18
2022-10-13T01:09:37.569Z,14.53
2022-10-13T01:14:40.501Z,14.04
2022-10-13T01:20:18.016Z,14.22
2022-10-13T01:25:36.762Z,14.09
2022-10-13T01:30:52.927Z,13.90
2022-10-13T01:36:40.370Z,13.39
2022-10-13T01:41:50.368Z,13.51
2022-10-13T01:46:53.172Z,13.56
2022-10-13T01:52:10.795Z,13.60
2022-10-13T01:57:37.892Z,13.75
2022-10-13T02:02:57.643Z,13.47
2022-10-13T02:08:19.751Z,13.68
2022-10-13T02:13:42.063Z,13.13
2022-10-13T02:18:44.261Z,13.19
2022-10-13T02:23:45.755Z,13.18
2022-10-13T02:28:45.100Z,13.24
2022-10-13T02:33:43.899Z,13.20
2022-10-13T02:38:44.596Z,13.17
2022-10-13T02:43:48.254Z,13.11
2022-10-13T02:48:48.245Z,13.15
2022-10-13T02:53:46.721Z,13.00
2022-10-13T02:58:46.218Z,13.02
2022-10-13T03:04:11.471Z,13.23
2022-10-13T03:09:12.087Z,13.09
2022-10-13T03:14:14.379Z,13.02
2022-10-13T03:19:13.552Z,12.67
2022-10-13T03:24:12.001Z,12.40
2022-10-13T03:29:15.160Z,12.52
2022-10-13T03:34:14.584Z,12.02
2022-10-13T03:39:13.838Z,11.25
2022-10-13T03:44:13.491Z,11.62
2022-10-13T03:49:13.559Z,11.75
2022-10-13T03:54:23.348Z,11.86
2022-10-13T03:59:36.390Z,11.78
2022-10-13T04:04:39.934Z,11.81
2022-10-13T04:09:41.957Z,12.23
2022-10-13T04:14:40.743Z,12.06
2022-10-13T04:20:03.640Z,12.03
2022-10-13T04:25:12.743Z,12.21
2022-10-13T04:30:13.685Z,12.02
2022-10-13T04:35:12.682Z,12.40
2022-10-13T04:40:10.411Z,12.42
2022-10-13T04:45:16.570Z,12.40
2022-10-13T04:50:25.346Z,12.37
2022-10-13T04:55:35.197Z,12.66
2022-10-13T05:00:32.626Z,12.68
2022-10-13T05:05:31.595Z,12.58
2022-10-13T05:10:34.638Z,12.60
2022-10-13T05:15:36.181Z,12.63
2022-10-13T05:20:34.584Z,12.53
2022-10-13T05:25:35.787Z,12.73
2022-10-13T05:30:35.727Z,12.63
2022-10-13T05:35:34.338Z,12.45
2022-10-13T05:40:33.751Z,12.45
2022-10-13T05:45:33.676Z,12.17
2022-10-13T05:50:31.857Z,12.01
2022-10-13T05:55:34.250Z,12.11
2022-10-13T06:00:35.193Z,12.29
2022-10-13T06:05:34.385Z,12.28
2022-10-13T06:10:37.869Z,12.72
2022-10-13T06:15:42.906Z,12.63
2022-10-13T06:20:45.529Z,12.74
2022-10-13T06:25:50.223Z,12.96
2022-10-13T06:30:55.962Z,13.21
2022-10-13T06:35:56.767Z,13.37
2022-10-13T06:40:55.016Z,13.22
2022-10-13T06:45:57.556Z,13.07
2022-10-13T06:51:09.065Z,13.33
2022-10-13T06:56:10.248Z,13.45
2022-10-13T07:01:10.468Z,13.49
2022-10-13T07:06:13.436Z,13.82
2022-10-13T07:11:16.186Z,13.57
2022-10-13T07:16:18.650Z,13.65
2022-10-13T07:21:17.432Z,13.93
2022-10-13T07:26:16.304Z,14.43
2022-10-13T07:31:29.327Z,14.59
2022-10-13T07:36:28.306Z,14.71
2022-10-13T07:41:26.255Z,15.29
2022-10-13T07:46:29.849Z,15.34
2022-10-13T07:51:28.025Z,15.40
2022-10-13T07:56:26.797Z,15.27
2022-10-13T08:01:25.051Z,15.51
2022-10-13T08:06:25.127Z,15.52
2022-10-13T08:11:26.795Z,15.62
2022-10-13T08:16:25.049Z,15.97
2022-10-13T08:21:52.792Z,16.14
2022-10-13T08:26:43.497Z,16.11
2022-10-13T08:31:42.143Z,16.52
2022-10-13T08:36:40.253Z,16.69
2022-10-13T08:41:46.015Z,16.99
2022-10-13T08:46:56.348Z,17.14
2022-10-13T08:51:58.286Z,17.30
2022-10-13T08:56:56.825Z,17.69
2022-10-13T09:01:57.764Z,17.87
2022-10-13T09:07:14.705Z,18.25
2022-10-13T09:12:13.880Z,18.28
2022-10-13T09:17:25.192Z,18.26
2022-10-13T09:22:56.960Z,18.39
2022-10-13T09:27:58.487Z,18.37
2022-10-13T09:33:13.571Z,18.40
2022-10-13T09:38:24.614Z,18.51
2022-10-13T09:43:31.458Z,18.73
2022-10-13T09:48:33.745Z,18.69
2022-10-13T09:53:37.881Z,18.62
2022-10-13T09:58:48.312Z,18.86
2022-10-13T10:03:50.606Z,19.09
2022-10-13T10:09:14.752Z,18.92
2022-10-13T10:14:32.081Z,19.07
2022-10-13T10:20:04.260Z,19.38
2022-10-13T10:25:16.348Z,19.44
2022-10-13T10:30:21.399Z,19.40
2022-10-13T10:35:46.731Z,19.73
2022-10-13T10:41:02.574Z,19.83
2022-10-13T10:46:02.629Z,19.91
2022-10-13T10:51:02.143Z,19.50
2022-10-13T10:56:22.768Z,19.55
2022-10-13T11:02:02.833Z,20.14
2022-10-13T11:07:04.606Z,19.72
2022-10-13T11:12:02.496Z,20.07
2022-10-13T11:17:07.572Z,20.61
2022-10-13T11:22:05.922Z,20.86
2022-10-13T11:27:18.430Z,20.78
2022-10-13T11:32:26.496Z,21.13
2022-10-13T11:38:05.672Z,20.91
2022-10-13T11:43:27.517Z,21.17
2022-10-13T11:48:48.202Z,21.71
2022-10-13T11:54:01.482Z,21.58
2022-10-13T11:59:00.210Z,21.72
2022-10-13T12:04:00.479Z,21.84
2022-10-13T12:09:05.082Z,21.85
2022-10-13T12:14:06.237Z,21.23
2022-10-13T12:19:21.809Z,21.08
2022-10-13T12:24:27.881Z,21.71
2022-10-13T12:29:28.861Z,21.69
2022-10-13T12:34:35.277Z,21.35
2022-10-13T12:39:34.395Z,21.39
2022-10-13T12:44:48.812Z,21.39
2022-10-13T12:50:25.834Z,21.07
2022-10-13T12:55:29.201Z,21.48
2022-10-13T13:00:31.583Z,21.70
2022-10-13T13:05:34.324Z,21.35
2022-10-13T13:10:37.105Z,21.58
2022-10-13T13:15:37.811Z,21.96
2022-10-13T13:20:38.432Z,21.97
2022-10-13T13:25:36.335Z,21.78
2022-10-13T13:30:41.815Z,22.01
2022-10-13T13:35:43.576Z,21.98
2022-10-13T13:40:44.842Z,22.06
2022-10-13T13:45:47.885Z,22.21
2022-10-13T13:50:48.960Z,21.96
2022-10-13T13:55:54.729Z,21.70
2022-10-13T14:00:54.826Z,21.49
2022-10-13T14:05:53.277Z,21.19
2022-10-13T14:10:52.394Z,20.96
2022-10-13T14:16:13.377Z,21.13
2022-10-13T14:21:14.662Z,21.03
2022-10-13T14:26:18.120Z,20.62
2022-10-13T14:31:31.790Z,20.61
2022-10-13T14:36:30.731Z,20.50
2022-10-13T14:41:34.769Z,20.49
2022-10-13T14:46:38.202Z,20.51
2022-10-13T14:51:39.498Z,20.28
2022-10-13T14:56:38.094Z,19.95
2022-10-13T15:01:41.722Z,20.29
2022-10-13T15:06:40.920Z,19.91
2022-10-13T15:11:40.003Z,19.71
2022-10-13T15:16:40.572Z,19.51
2022-10-13T15:21:41.554Z,19.28
2022-10-13T15:26:43.173Z,19.31
2022-10-13T15:31:43.432Z,19.22
2022-10-13T15:36:44.271Z,18.99
2022-10-13T15:41:44.893Z,19.16
2022-10-13T15:47:05.593Z,19.15
2022-10-13T15:52:07.306Z,19.11
2022-10-13T15:57:05.618Z,18.90
2022-10-13T16:02:04.255Z,18.84
2022-10-13T16:07:02.686Z,18.69
2022-10-13T16:12:02.345Z,18.51
2022-10-13T16:17:01.115Z,18.37
2022-10-13T16:22:05.606Z,18.30
2022-10-13T16:27:04.028Z,18.16
2022-10-13T16:32:04.894Z,17.96
2022-10-13T16:37:05.968Z,17.99
2022-10-13T16:42:05.928Z,17.73
2022-10-13T16:47:13.562Z,17.58
2022-10-13T16:52:18.404Z,17.55
2022-10-13T16:57:19.521Z,17.61
2022-10-13T17:02:21.094Z,17.51
2022-10-13T17:07:21.859Z,17.39
2022-10-13T17:12:19.546Z,17.34
2022-10-13T17:17:20.421Z,17.31
2022-10-13T17:22:22.363Z,17.34
2022-10-13T17:27:33.322Z,17.31
2022-10-13T17:38:01.158Z,17.32
2022-10-13T17:43:16.161Z,17.08
2022-10-13T17:48:23.082Z,17.22
2022-10-13T17:53:30.755Z,17.10
2022-10-13T17:58:32.065Z,16.73
2022-10-13T18:03:34.526Z,16.63
2022-10-13T18:08:33.661Z,16.63
2022-10-13T18:13:38.815Z,16.63
2022-10-13T18:18:38.095Z,16.66
2022-10-13T18:23:37.163Z,16.35
2022-10-13T18:28:42.786Z,16.14
2022-10-13T18:39:22.173Z,16.30
2022-10-13T18:44:26.648Z,16.15
2022-10-13T18:49:32.834Z,16.22
2022-10-13T18:54:38.976Z,16.17
2022-10-13T18:59:46.636Z,16.09
2022-10-13T19:04:45.804Z,16.10
2022-10-13T19:09:54.449Z,15.76
2022-10-13T19:15:07.334Z,15.68
2022-10-13T19:20:09.928Z,15.93
2022-10-13T19:25:09.318Z,15.93
2022-10-13T19:30:09.694Z,15.71
2022-10-13T19:35:08.249Z,15.59
2022-10-13T19:40:17.104Z,15.98
2022-10-13T19:45:19.660Z,15.87
2022-10-13T19:50:19.326Z,16.15
2022-10-13T19:55:27.156Z,15.68
2022-10-13T20:00:38.956Z,15.69
2022-10-13T20:05:45.061Z,15.69
2022-10-13T20:10:48.035Z,15.70
2022-10-13T20:16:05.486Z,15.71
2022-10-13T20:21:15.367Z,15.65
2022-10-13T20:26:29.647Z,15.29
2022-10-13T20:31:32.563Z,15.23
2022-10-13T20:36:38.321Z,15.05
2022-10-13T20:41:37.749Z,15.10
2022-10-13T20:46:43.836Z,15.07
2022-10-13T20:51:45.366Z,15.06
2022-10-13T20:56:43.550Z,15.05
2022-10-13T21:01:42.898Z,14.74
2022-10-13T21:06:43.941Z,14.54
2022-10-13T21:11:43.140Z,14.17
2022-10-13T21:16:45.858Z,14.22
2022-10-13T21:21:47.624Z,13.86
2022-10-13T21:26:47.973Z,13.85
2022-10-13T21:31:48.607Z,13.63
2022-10-13T21:36:58.143Z,13.69
2022-10-13T21:41:56.887Z,13.71
2022-10-13T21:47:10.945Z,13.68
2022-10-13T21:52:21.924Z,13.75
2022-10-13T21:57:38.101Z,13.68
2022-10-13T22:02:48.160Z,13.74
2022-10-13T22:07:55.059Z,13.71
2022-10-13T22:13:00.192Z,13.95
2022-10-13T22:23:42.836Z,13.57
2022-10-13T22:28:55.486Z,13.84
2022-10-13T22:34:26.077Z,14.00
2022-10-13T22:39:48.032Z,13.66
2022-10-13T22:50:17.506Z,13.67
2022-10-13T22:55:17.219Z,14.15
2022-10-13T23:00:20.573Z,14.11
2022-10-13T23:05:29.114Z,14.14
2022-10-13T23:10:58.861Z,13.74
2022-10-13T23:16:11.975Z,13.51
2022-10-13T23:21:22.218Z,13.24
2022-10-13T23:26:22.859Z,13.42
2022-10-13T23:31:39.028Z,13.33
2022-10-13T23:36:43.697Z,13.22
2022-10-13T23:41:48.258Z,13.43
2022-10-13T23:46:53.431Z,13.21
2022-10-13T23:51:59.500Z,12.97
2022-10-13T23:57:01.722Z,12.85
